createdAt,value
2018-09-08T00:02:23.740Z,15.30
2018-09-08T00:04:52.289Z,15.23
2018-09-08T00:07:26.102Z,14.85
2018-09-08T00:09:54.609Z,15.10
2018-09-08T00:12:23.116Z,14.90
2018-09-08T00:14:50.823Z,12.68
2018-09-08T00:17:24.529Z,15.95
2018-09-08T00:19:58.321Z,14.40
2018-09-08T00:22:32.182Z,14.33
2018-09-08T00:25:05.960Z,14.05
2018-09-08T00:27:39.772Z,14.20
2018-09-08T00:30:09.229Z,13.30
2018-09-08T00:32:39.338Z,14.47
2018-09-08T00:35:07.894Z,16.85
2018-09-08T00:37:36.406Z,16.05
2018-09-08T00:40:05.090Z,15.90
2018-09-08T00:42:33.614Z,14.55
2018-09-08T00:45:02.138Z,14.25
2018-09-08T00:47:30.725Z,13.35
2018-09-08T00:49:59.262Z,14.70
2018-09-08T00:52:27.795Z,14.63
2018-09-08T00:54:56.374Z,14.50
2018-09-08T00:57:24.894Z,13.53
2018-09-08T00:59:53.437Z,17.12
2018-09-08T01:02:21.986Z,14.43
2018-09-08T01:04:50.574Z,15.28
2018-09-08T01:07:24.364Z,16.15
2018-09-08T01:09:52.924Z,15.40
2018-09-08T01:12:21.449Z,15.63
2018-09-08T01:14:49.967Z,15.63
2018-09-08T01:17:18.592Z,13.90
2018-09-08T01:19:47.119Z,14.35
2018-09-08T01:22:15.728Z,15.45
2018-09-08T01:24:44.421Z,14.68
2018-09-08T01:27:12.961Z,14.15
2018-09-08T01:29:41.478Z,13.20
2018-09-08T01:32:10.008Z,13.72
2018-09-08T01:34:38.532Z,12.80
2018-09-08T01:37:07.064Z,14.38
2018-09-08T01:39:35.589Z,16.20
2018-09-08T01:42:04.117Z,17.30
2018-09-08T01:44:32.651Z,14.30
2018-09-08T01:47:01.220Z,15.15
2018-09-08T01:49:29.754Z,15.13
2018-09-08T01:51:58.267Z,15.28
2018-09-08T01:54:28.827Z,14.75
2018-09-08T01:56:57.371Z,15.38
2018-09-08T01:59:25.943Z,14.43
2018-09-08T02:01:54.480Z,15.13
2018-09-08T02:04:23.014Z,15.05
2018-09-08T02:06:51.563Z,13.40
2018-09-08T02:09:20.083Z,16.17
2018-09-08T02:11:48.669Z,16.23
2018-09-08T02:14:17.230Z,15.35
2018-09-08T02:16:45.787Z,15.18
2018-09-08T02:19:14.414Z,15.78
2018-09-08T02:21:42.952Z,15.48
2018-09-08T02:24:11.480Z,13.72
2018-09-08T02:26:40.028Z,14.38
2018-09-08T02:29:08.564Z,13.43
2018-09-08T02:31:37.118Z,15.40
2018-09-08T02:34:05.674Z,13.50
2018-09-08T02:36:34.211Z,14.00
2018-09-08T02:39:02.764Z,13.38
2018-09-08T02:41:31.289Z,12.65
2018-09-08T02:43:59.803Z,13.90
2018-09-08T02:46:28.356Z,14.05
2018-09-08T02:48:56.890Z,10.98
2018-09-08T02:51:24.313Z,11.20
2018-09-08T02:53:51.744Z,13.38
2018-09-08T02:56:19.117Z,13.40
2018-09-08T02:58:46.548Z,13.88
2018-09-08T03:01:13.947Z,13.38
2018-09-08T03:03:41.329Z,11.80
2018-09-08T03:06:08.724Z,14.30
2018-09-08T03:08:36.114Z,15.78
2018-09-08T03:11:03.519Z,14.40
2018-09-08T03:13:30.906Z,14.60
2018-09-08T03:15:58.296Z,13.20
2018-09-08T03:18:25.681Z,13.90
2018-09-08T03:20:53.106Z,12.80
2018-09-08T03:23:20.484Z,13.15
2018-09-08T03:25:47.860Z,15.20
2018-09-08T03:28:15.228Z,15.70
2018-09-08T03:30:42.604Z,13.78
2018-09-08T03:33:09.994Z,13.70
2018-09-08T03:35:37.438Z,13.93
2018-09-08T03:38:04.872Z,13.40
2018-09-08T03:40:32.248Z,13.05
2018-09-08T03:42:59.624Z,13.08
2018-09-08T03:45:27.006Z,13.00
2018-09-08T03:47:54.376Z,12.35
2018-09-08T03:50:21.758Z,12.45
2018-09-08T03:52:49.183Z,12.55
2018-09-08T03:55:16.563Z,12.23
2018-09-08T03:57:43.939Z,12.50
2018-09-08T04:00:11.334Z,12.40
2018-09-08T04:02:39.856Z,12.50
2018-09-08T04:05:08.381Z,13.88
2018-09-08T04:07:36.893Z,12.28
2018-09-08T04:10:05.538Z,11.80
2018-09-08T04:12:34.068Z,13.05
2018-09-08T04:15:02.626Z,15.58
2018-09-08T04:17:31.217Z,15.20
2018-09-08T04:19:59.722Z,13.25
2018-09-08T04:22:32.898Z,14.80
2018-09-08T04:25:01.481Z,16.12
2018-09-08T04:27:30.019Z,15.60
2018-09-08T04:29:58.647Z,15.35
2018-09-08T04:32:27.187Z,13.48
2018-09-08T04:34:55.738Z,14.98
2018-09-08T04:37:24.328Z,15.48
2018-09-08T04:39:52.850Z,17.52
2018-09-08T04:42:21.444Z,18.20
2018-09-08T04:44:50.270Z,18.05
2018-09-08T04:47:18.840Z,17.00
2018-09-08T04:49:47.392Z,18.02
2018-09-08T04:52:15.900Z,19.60
2018-09-08T04:54:44.424Z,19.17
2018-09-08T04:57:12.982Z,20.90
2018-09-08T04:59:41.496Z,20.65
2018-09-08T05:02:10.028Z,22.20
2018-09-08T05:04:38.576Z,23.30
2018-09-08T05:07:07.244Z,22.00
2018-09-08T05:09:35.750Z,20.97
2018-09-08T05:12:04.506Z,22.40
2018-09-08T05:14:34.875Z,21.52
2018-09-08T05:17:03.520Z,23.45
2018-09-08T05:19:32.055Z,23.83
2018-09-08T05:22:00.634Z,22.15
2018-09-08T05:24:29.200Z,23.18
2018-09-08T05:26:57.716Z,24.47
2018-09-08T05:29:26.260Z,21.23
2018-09-08T05:31:54.772Z,23.00
2018-09-08T05:34:23.299Z,22.37
2018-09-08T05:36:51.821Z,21.80
2018-09-08T05:39:20.345Z,23.18
2018-09-08T05:41:48.886Z,24.27
2018-09-08T05:44:17.451Z,22.75
2018-09-08T05:46:46.026Z,22.87
2018-09-08T05:49:14.532Z,23.95
2018-09-08T05:51:43.060Z,24.90
2018-09-08T05:54:11.589Z,22.42
2018-09-08T05:56:40.176Z,22.50
2018-09-08T05:59:08.744Z,22.60
2018-09-08T06:01:37.449Z,22.15
2018-09-08T06:04:05.993Z,21.40
2018-09-08T06:06:34.497Z,21.30
2018-09-08T06:09:03.139Z,22.17
2018-09-08T06:11:31.658Z,22.85
2018-09-08T06:14:00.170Z,21.93
2018-09-08T06:16:28.672Z,20.72
2018-09-08T06:18:57.291Z,22.20
2018-09-08T06:21:25.835Z,21.68
2018-09-08T06:23:54.427Z,22.15
2018-09-08T06:26:22.984Z,19.70
2018-09-08T06:28:51.604Z,21.55
2018-09-08T06:31:20.152Z,19.40
2018-09-08T06:33:48.731Z,21.52
2018-09-08T06:36:17.244Z,23.85
2018-09-08T06:38:45.856Z,21.82
2018-09-08T06:41:14.376Z,22.73
2018-09-08T06:43:42.944Z,23.32
2018-09-08T06:46:11.475Z,20.70
2018-09-08T06:48:40.035Z,19.07
2018-09-08T06:51:08.661Z,20.12
2018-09-08T06:53:37.205Z,20.97
2018-09-08T06:56:06.270Z,20.23
2018-09-08T06:58:34.849Z,20.30
2018-09-08T07:01:03.439Z,20.85
2018-09-08T07:03:32.076Z,20.37
2018-09-08T07:06:00.628Z,19.48
2018-09-08T07:08:29.166Z,20.27
2018-09-08T07:10:57.697Z,19.87
2018-09-08T07:13:26.227Z,20.92
2018-09-08T07:15:54.804Z,20.88
2018-09-08T07:18:23.316Z,22.82
2018-09-08T07:20:51.869Z,19.67
2018-09-08T07:23:20.377Z,21.37
2018-09-08T07:25:48.911Z,20.95
2018-09-08T07:28:17.438Z,23.00
2018-09-08T07:30:45.981Z,20.27
2018-09-08T07:33:14.540Z,20.70
2018-09-08T07:35:43.052Z,21.02
2018-09-08T07:38:11.609Z,22.15
2018-09-08T07:40:40.270Z,18.37
2018-09-08T07:43:08.800Z,20.30
2018-09-08T07:45:37.338Z,22.67
2018-09-08T07:48:06.060Z,22.85
2018-09-08T07:50:34.576Z,20.88
2018-09-08T07:53:03.101Z,20.23
2018-09-08T07:55:31.751Z,20.57
2018-09-08T07:58:00.530Z,19.42
2018-09-08T08:00:29.191Z,19.55
2018-09-08T08:02:57.752Z,17.48
2018-09-08T08:05:26.281Z,18.30
2018-09-08T08:07:54.831Z,18.45
2018-09-08T08:10:23.402Z,17.92
2018-09-08T08:12:52.039Z,18.65
2018-09-08T08:15:21.209Z,18.60
2018-09-08T08:17:49.761Z,17.07
2018-09-08T08:20:18.326Z,16.55
2018-09-08T08:22:46.948Z,14.90
2018-09-08T08:25:15.499Z,15.55
2018-09-08T08:27:44.124Z,16.25
2018-09-08T08:30:12.635Z,15.18
2018-09-08T08:32:41.156Z,14.15
2018-09-08T08:35:09.718Z,13.40
2018-09-08T08:37:38.369Z,15.60
2018-09-08T08:40:07.139Z,12.05
2018-09-08T08:42:35.717Z,11.13
2018-09-08T08:45:04.326Z,10.50
2018-09-08T08:47:32.884Z,10.23
2018-09-08T08:50:12.729Z,11.83
2018-09-08T08:52:52.854Z,9.77
2018-09-08T08:55:21.396Z,9.80
2018-09-08T08:57:49.952Z,10.67
2018-09-08T09:00:18.489Z,9.77
2018-09-08T09:02:47.023Z,9.40
2018-09-08T09:05:15.565Z,8.87
2018-09-08T09:07:44.111Z,7.73
2018-09-08T09:10:12.683Z,7.90
2018-09-08T09:12:41.215Z,6.80
2018-09-08T09:15:10.186Z,8.40
2018-09-08T09:17:38.382Z,6.70
2018-09-08T09:20:18.204Z,6.40
2018-09-08T09:22:57.924Z,6.03
2018-09-08T09:25:26.489Z,6.40
2018-09-08T09:27:55.014Z,5.47
2018-09-08T09:30:23.579Z,6.20
2018-09-08T09:32:52.139Z,6.25
2018-09-08T09:35:21.898Z,5.60
2018-09-08T09:37:50.428Z,5.43
2018-09-08T09:40:20.321Z,4.93
2018-09-08T09:42:48.856Z,4.80
2018-09-08T09:45:17.404Z,5.57
2018-09-08T09:47:45.971Z,5.50
2018-09-08T09:50:14.519Z,3.60
2018-09-08T09:52:43.076Z,4.97
2018-09-08T09:55:11.654Z,4.57
2018-09-08T09:57:40.191Z,6.00
2018-09-08T10:00:09.851Z,6.73
2018-09-08T10:02:45.547Z,5.57
2018-09-08T10:05:19.628Z,5.50
2018-09-08T10:07:48.781Z,5.30
2018-09-08T10:10:21.672Z,4.83
2018-09-08T10:12:50.204Z,5.50
2018-09-08T10:15:18.760Z,5.30
2018-09-08T10:17:47.426Z,4.90
2018-09-08T10:20:17.528Z,4.97
2018-09-08T10:22:46.118Z,4.40
2018-09-08T10:25:16.099Z,4.30
2018-09-08T10:27:45.394Z,5.07
2018-09-08T10:30:14.483Z,4.50
2018-09-08T10:32:44.030Z,5.30
2018-09-08T10:35:12.800Z,4.62
2018-09-08T10:37:41.583Z,4.80
2018-09-08T10:40:10.989Z,5.30
2018-09-08T10:42:39.508Z,4.30
2018-09-08T10:45:08.254Z,4.33
2018-09-08T10:47:36.906Z,4.47
2018-09-08T10:50:06.221Z,3.87
2018-09-08T10:52:37.284Z,3.60
2018-09-08T10:55:05.841Z,3.73
2018-09-08T10:57:34.413Z,3.93
2018-09-08T11:00:03.784Z,4.83
2018-09-08T11:02:32.803Z,3.77
2018-09-08T11:05:01.778Z,4.00
2018-09-08T11:07:30.815Z,3.83
2018-09-08T11:09:59.525Z,3.60
2018-09-08T11:12:28.108Z,3.23
2018-09-08T11:14:56.705Z,3.87
2018-09-08T11:17:25.472Z,3.80
2018-09-08T11:19:54.024Z,4.00
2018-09-08T11:22:23.586Z,3.83
2018-09-08T11:24:52.223Z,3.57
2018-09-08T11:27:20.763Z,3.10
2018-09-08T11:29:49.397Z,2.80
2018-09-08T11:32:17.948Z,2.95
2018-09-08T11:34:46.512Z,4.40
2018-09-08T11:37:15.031Z,3.20
2018-09-08T11:39:43.587Z,2.57
2018-09-08T11:42:12.184Z,3.20
2018-09-08T11:44:40.763Z,2.43
2018-09-08T11:47:09.317Z,2.33
2018-09-08T11:49:37.892Z,1.93
2018-09-08T11:52:06.470Z,2.30
2018-09-08T11:54:35.031Z,2.20
2018-09-08T11:57:03.613Z,2.23
2018-09-08T11:59:32.261Z,2.27
2018-09-08T12:02:00.886Z,2.20
2018-09-08T12:04:30.351Z,2.43
2018-09-08T12:06:59.010Z,2.70
2018-09-08T12:09:27.550Z,2.60
2018-09-08T12:11:56.090Z,2.70
2018-09-08T12:14:24.704Z,2.23
2018-09-08T12:16:53.260Z,2.50
2018-09-08T12:19:21.829Z,2.30
2018-09-08T12:21:50.343Z,2.67
2018-09-08T12:24:18.855Z,2.37
2018-09-08T12:26:47.378Z,2.70
2018-09-08T12:29:15.877Z,2.90
2018-09-08T12:31:44.377Z,2.20
2018-09-08T12:34:12.868Z,2.00
2018-09-08T12:36:41.389Z,1.90
2018-09-08T12:39:10.226Z,2.47
2018-09-08T12:41:38.732Z,2.50
2018-09-08T12:44:07.239Z,2.20
2018-09-08T12:46:35.752Z,2.57
2018-09-08T12:49:04.252Z,2.40
2018-09-08T12:51:32.829Z,2.20
2018-09-08T12:54:01.361Z,2.10
2018-09-08T12:56:29.906Z,2.10
2018-09-08T12:58:58.424Z,2.07
2018-09-08T13:01:26.966Z,1.80
2018-09-08T13:03:55.490Z,2.17
2018-09-08T13:06:23.996Z,1.37
2018-09-08T13:08:52.492Z,2.60
2018-09-08T13:11:21.008Z,2.03
2018-09-08T13:13:49.537Z,2.03
2018-09-08T13:16:18.058Z,2.00
2018-09-08T13:18:46.567Z,1.70
2018-09-08T13:21:15.076Z,2.50
2018-09-08T13:23:43.604Z,2.03
2018-09-08T13:26:12.092Z,2.07
2018-09-08T13:28:40.650Z,1.90
2018-09-08T13:31:09.165Z,2.23
2018-09-08T13:33:37.668Z,2.17
2018-09-08T13:36:06.193Z,2.30
2018-09-08T13:38:34.731Z,2.27
2018-09-08T13:41:03.312Z,2.10
2018-09-08T13:43:31.924Z,2.20
2018-09-08T13:46:00.459Z,1.83
2018-09-08T13:48:29.076Z,2.03
2018-09-08T13:50:57.656Z,1.60
2018-09-08T13:53:26.224Z,2.13
2018-09-08T13:55:54.760Z,1.97
2018-09-08T13:58:23.291Z,1.90
2018-09-08T14:00:51.890Z,2.27
2018-09-08T14:03:20.489Z,2.60
2018-09-08T14:05:49.000Z,2.17
2018-09-08T14:08:17.844Z,2.03
2018-09-08T14:10:47.241Z,1.90
2018-09-08T14:13:15.872Z,2.17
2018-09-08T14:15:44.471Z,1.80
2018-09-08T14:18:13.001Z,2.00
2018-09-08T14:20:41.580Z,1.83
2018-09-08T14:23:10.122Z,1.70
2018-09-08T14:25:38.658Z,1.60
2018-09-08T14:28:08.356Z,1.57
2018-09-08T14:30:36.872Z,2.07
2018-09-08T14:33:05.462Z,2.17
2018-09-08T14:35:34.128Z,1.73
2018-09-08T14:38:02.686Z,1.90
2018-09-08T14:40:31.226Z,1.93
2018-09-08T14:42:59.860Z,2.00
2018-09-08T14:45:28.363Z,2.10
2018-09-08T14:47:57.280Z,1.97
2018-09-08T14:50:27.222Z,1.80
2018-09-08T14:52:55.751Z,1.80
2018-09-08T14:55:25.274Z,1.90
2018-09-08T14:57:53.814Z,1.67
2018-09-08T15:00:22.385Z,1.73
2018-09-08T15:02:51.016Z,2.10
2018-09-08T15:05:19.537Z,1.80
2018-09-08T15:07:48.067Z,1.70
2018-09-08T15:10:16.677Z,1.87
2018-09-08T15:12:45.185Z,1.70
2018-09-08T15:15:13.695Z,2.00
2018-09-08T15:17:42.805Z,1.90
2018-09-08T15:20:11.418Z,1.40
2018-09-08T15:22:39.915Z,2.03
2018-09-08T15:25:08.434Z,1.60
2018-09-08T15:27:37.001Z,1.73
2018-09-08T15:30:05.563Z,1.63
2018-09-08T15:32:34.064Z,1.60
2018-09-08T15:35:02.598Z,1.60
2018-09-08T15:37:31.164Z,2.10
2018-09-08T15:39:59.694Z,2.30
2018-09-08T15:42:28.258Z,1.97
2018-09-08T15:44:56.828Z,1.70
2018-09-08T15:47:25.363Z,1.87
2018-09-08T15:49:53.906Z,1.80
2018-09-08T15:52:22.415Z,1.87
2018-09-08T15:54:50.925Z,2.10
2018-09-08T15:57:19.452Z,1.47
2018-09-08T15:59:48.158Z,2.00
2018-09-08T16:02:16.677Z,1.70
2018-09-08T16:04:45.265Z,1.70
2018-09-08T16:07:13.793Z,1.50
2018-09-08T16:09:42.332Z,1.63
2018-09-08T16:12:10.881Z,2.20
2018-09-08T16:14:39.423Z,1.83
2018-09-08T16:17:08.160Z,1.90
2018-09-08T16:19:36.692Z,2.20
2018-09-08T16:22:05.277Z,2.03
2018-09-08T16:24:33.808Z,1.97
2018-09-08T16:27:02.406Z,1.70
2018-09-08T16:29:30.989Z,2.23
2018-09-08T16:31:59.485Z,2.10
2018-09-08T16:34:28.023Z,2.57
2018-09-08T16:36:56.563Z,2.53
2018-09-08T16:39:25.110Z,2.20
2018-09-08T16:41:53.631Z,2.30
2018-09-08T16:44:22.143Z,3.47
2018-09-08T16:46:50.676Z,7.50
2018-09-08T16:49:20.139Z,4.10
2018-09-08T16:51:48.840Z,2.50
2018-09-08T16:54:17.418Z,2.23
2018-09-08T16:56:46.049Z,2.33
2018-09-08T16:59:14.674Z,1.70
2018-09-08T17:01:43.205Z,1.83
2018-09-08T17:04:11.918Z,1.90
2018-09-08T17:06:40.486Z,1.63
2018-09-08T17:09:09.220Z,1.63
2018-09-08T17:11:38.291Z,1.80
2018-09-08T17:14:06.886Z,1.80
2018-09-08T17:16:35.478Z,2.23
2018-09-08T17:19:04.131Z,4.70
2018-09-08T17:21:32.698Z,4.50
2018-09-08T17:24:01.206Z,4.70
2018-09-08T17:26:29.766Z,3.63
2018-09-08T17:28:58.277Z,2.20
2018-09-08T17:31:26.811Z,2.50
2018-09-08T17:33:55.382Z,2.10
2018-09-08T17:36:23.928Z,3.23
2018-09-08T17:38:52.519Z,4.23
2018-09-08T17:41:21.048Z,4.13
2018-09-08T17:43:49.688Z,4.00
2018-09-08T17:46:18.233Z,9.97
2018-09-08T17:48:46.826Z,5.20
2018-09-08T17:51:15.431Z,7.33
2018-09-08T17:53:43.989Z,4.07
2018-09-08T17:56:12.526Z,3.00
2018-09-08T17:58:41.092Z,2.50
2018-09-08T18:01:09.633Z,2.97
2018-09-08T18:03:38.318Z,3.20
2018-09-08T18:06:06.883Z,3.00
2018-09-08T18:08:35.401Z,2.70
2018-09-08T18:11:03.946Z,3.30
2018-09-08T18:13:32.490Z,3.30
2018-09-08T18:16:01.087Z,4.53
2018-09-08T18:18:29.607Z,5.23
2018-09-08T18:20:58.276Z,4.53
2018-09-08T18:23:26.856Z,2.70
2018-09-08T18:25:55.442Z,2.67
2018-09-08T18:28:24.008Z,2.50
2018-09-08T18:30:52.631Z,6.45
2018-09-08T18:33:21.221Z,6.17
2018-09-08T18:35:52.214Z,3.60
2018-09-08T18:38:21.813Z,3.23
2018-09-08T18:40:50.523Z,3.10
2018-09-08T18:43:19.304Z,3.80
2018-09-08T18:45:48.008Z,3.93
2018-09-08T18:48:16.723Z,3.52
2018-09-08T18:50:45.298Z,3.80
2018-09-08T18:53:14.612Z,3.90
2018-09-08T18:55:43.345Z,4.75
2018-09-08T18:58:12.029Z,5.22
2018-09-08T19:00:40.942Z,5.55
2018-09-08T19:03:09.552Z,5.20
2018-09-08T19:05:38.173Z,5.13
2018-09-08T19:08:06.766Z,6.37
2018-09-08T19:10:35.847Z,6.10
2018-09-08T19:13:05.021Z,5.80
2018-09-08T19:15:34.618Z,7.28
2018-09-08T19:18:03.200Z,7.85
2018-09-08T19:20:37.508Z,8.83
2018-09-08T19:23:06.223Z,7.80
2018-09-08T19:25:35.199Z,7.70
2018-09-08T19:28:03.776Z,10.13
2018-09-08T19:30:32.352Z,7.60
2018-09-08T19:33:00.931Z,7.65
2018-09-08T19:35:34.947Z,7.05
2018-09-08T19:38:03.555Z,6.97
2018-09-08T19:40:37.548Z,8.80
2018-09-08T19:43:06.237Z,8.73
2018-09-08T19:45:34.991Z,10.32
2018-09-08T19:48:05.779Z,22.52
2018-09-08T19:50:34.535Z,26.02
2018-09-08T19:53:08.363Z,14.85
2018-09-08T19:55:36.962Z,10.00
2018-09-08T19:58:10.825Z,11.40
2018-09-08T20:00:39.505Z,10.78
2018-09-08T20:03:08.101Z,10.23
2018-09-08T20:05:36.699Z,13.38
2018-09-08T20:08:05.264Z,16.48
2018-09-08T20:10:33.867Z,15.05
2018-09-08T20:13:02.439Z,12.37
2018-09-08T20:15:30.984Z,11.12
2018-09-08T20:17:59.528Z,12.20
2018-09-08T20:20:38.587Z,8.35
2018-09-08T20:23:07.165Z,10.30
2018-09-08T20:25:35.754Z,22.35
2018-09-08T20:28:04.302Z,11.33
2018-09-08T20:30:32.821Z,16.48
2018-09-08T20:33:01.344Z,20.30
2018-09-08T20:35:29.897Z,18.95
2018-09-08T20:37:58.472Z,17.50
2018-09-08T20:40:27.019Z,13.25
2018-09-08T20:42:55.604Z,11.53
2018-09-08T20:45:24.159Z,11.10
2018-09-08T20:47:52.810Z,10.80
2018-09-08T20:50:21.352Z,14.65
2018-09-08T20:52:49.834Z,17.17
2018-09-08T20:55:18.513Z,12.98
2018-09-08T20:57:47.132Z,11.93
2018-09-08T21:00:15.703Z,27.42
2018-09-08T21:02:44.234Z,34.30
2018-09-08T21:05:12.779Z,26.80
2018-09-08T21:07:41.324Z,15.23
2018-09-08T21:10:09.889Z,16.20
2018-09-08T21:12:38.436Z,15.53
2018-09-08T21:15:07.536Z,25.95
2018-09-08T21:17:36.076Z,10.32
2018-09-08T21:20:04.644Z,7.80
2018-09-08T21:22:33.181Z,8.25
2018-09-08T21:25:01.717Z,10.00
2018-09-08T21:27:30.246Z,10.25
2018-09-08T21:29:58.812Z,13.40
2018-09-08T21:32:27.518Z,15.23
2018-09-08T21:34:56.047Z,9.33
2018-09-08T21:37:24.584Z,14.07
2018-09-08T21:39:53.164Z,14.25
2018-09-08T21:42:21.701Z,11.38
2018-09-08T21:44:50.314Z,7.60
2018-09-08T21:47:18.924Z,8.95
2018-09-08T21:49:47.456Z,13.85
2018-09-08T21:52:16.168Z,12.00
2018-09-08T21:54:44.710Z,10.28
2018-09-08T21:57:13.266Z,7.70
2018-09-08T21:59:41.818Z,9.63
2018-09-08T22:02:10.350Z,7.85
2018-09-08T22:04:38.880Z,5.53
2018-09-08T22:07:07.421Z,4.67
2018-09-08T22:09:35.982Z,5.12
2018-09-08T22:12:05.177Z,5.30
2018-09-08T22:14:33.712Z,4.80
2018-09-08T22:17:02.249Z,4.60
2018-09-08T22:19:30.805Z,5.03
2018-09-08T22:21:59.362Z,5.42
2018-09-08T22:24:27.888Z,4.85
2018-09-08T22:26:56.431Z,4.65
2018-09-08T22:29:25.008Z,4.80
2018-09-08T22:31:53.558Z,4.55
2018-09-08T22:34:22.100Z,4.30
2018-09-08T22:36:50.630Z,5.15
2018-09-08T22:39:19.169Z,4.45
2018-09-08T22:41:47.702Z,4.60
2018-09-08T22:44:16.248Z,4.62
2018-09-08T22:46:44.769Z,4.60
2018-09-08T22:49:13.308Z,4.40
2018-09-08T22:51:41.842Z,5.60
2018-09-08T22:54:10.404Z,5.40
2018-09-08T22:56:38.952Z,4.62
2018-09-08T22:59:07.520Z,4.70
2018-09-08T23:01:36.057Z,4.45
2018-09-08T23:04:04.614Z,4.85
2018-09-08T23:06:33.144Z,4.70
2018-09-08T23:09:01.697Z,4.83
2018-09-08T23:11:30.204Z,5.00
2018-09-08T23:13:58.747Z,4.55
2018-09-08T23:16:27.320Z,4.37
2018-09-08T23:18:55.844Z,4.55
2018-09-08T23:21:24.366Z,4.78
2018-09-08T23:23:52.894Z,4.87
2018-09-08T23:26:21.428Z,4.90
2018-09-08T23:28:50.090Z,4.50
2018-09-08T23:31:18.602Z,4.35
2018-09-08T23:33:47.163Z,4.75
2018-09-08T23:36:15.680Z,5.17
2018-09-08T23:38:44.200Z,4.62
2018-09-08T23:41:12.736Z,5.10
2018-09-08T23:43:41.292Z,4.70
2018-09-08T23:46:09.909Z,5.55
2018-09-08T23:48:38.439Z,5.72
2018-09-08T23:51:07.363Z,6.35
2018-09-08T23:53:35.893Z,5.80
2018-09-08T23:56:04.472Z,6.30
2018-09-08T23:58:32.974Z,5.65
